Time;durP1;ratioP1;P1;durP2;ratioP2;P2;SDS_P1;SDS_P2;PMS_P1;PMS_P2;Temp;Humidity;BMP_temperature;BMP_pressure;BME280_temperature;BME280_humidity;BME280_pressure;Samples;Min_cycle;Max_cycle;Signal;HPM_P1;HPM_P2
2022/06/17 00:00:14;;;;;;;8.80;2.10;;;;;;;22.53;68.88;100309.66;5013782;28;20192;-68
2022/06/17 00:02:40;;;;;;;1.75;1.65;;;;;;;22.25;70.13;100299.03;5015615;28;20267;-68
2022/06/17 00:05:08;;;;;;;3.40;1.45;;;;;;;22.36;68.19;100285.50;5014664;28;20208;-68
2022/06/17 00:07:38;;;;;;;4.05;1.90;;;;;;;22.51;66.78;100295.63;5032473;28;20223;-68
2022/06/17 00:10:08;;;;;;;1.92;1.50;;;;;;;22.57;66.29;100306.00;4998041;28;20196;-68
2022/06/17 00:12:34;;;;;;;5.40;2.13;;;;;;;22.32;68.10;100294.44;5032868;28;20196;-68
2022/06/17 00:15:13;;;;;;;2.45;1.98;;;;;;;22.38;65.79;100295.13;5032753;28;20220;-68
2022/06/17 00:17:41;;;;;;;5.32;1.90;;;;;;;22.20;66.79;100287.72;5033061;28;20204;-68
2022/06/17 00:20:10;;;;;;;2.00;1.75;;;;;;;22.27;66.17;100275.19;5033295;28;20200;-67
2022/06/17 00:22:40;;;;;;;1.63;1.55;;;;;;;22.31;65.73;100277.72;5033036;28;20671;-68
2022/06/17 00:25:15;;;;;;;2.55;1.98;;;;;;;22.34;66.18;100289.97;5032937;28;20188;-68
2022/06/17 00:27:42;;;;;;;4.60;1.58;;;;;;;21.96;67.16;100262.03;5031682;28;20679;-68
2022/06/17 00:30:16;;;;;;;5.20;2.00;;;;;;;22.38;65.33;100288.97;4998033;28;20653;-68
2022/06/17 00:32:43;;;;;;;4.25;2.65;;;;;;;22.13;65.22;100278.25;5032697;28;20204;-68
2022/06/17 00:35:10;;;;;;;4.13;1.88;;;;;;;22.23;64.93;100279.72;5032875;28;20258;-68
2022/06/17 00:37:38;;;;;;;2.10;1.73;;;;;;;22.27;65.91;100281.34;5032065;28;20193;-68
2022/06/17 00:40:13;;;;;;;2.28;1.90;;;;;;;22.24;65.59;100276.16;5032210;28;20204;-68
2022/06/17 00:42:42;;;;;;;3.45;2.13;;;;;;;22.11;65.96;100257.19;5032079;28;20196;-68
2022/06/17 00:45:19;;;;;;;3.15;1.88;;;;;;;22.18;65.18;100279.88;5032323;28;20196;-68
2022/06/17 00:47:51;;;;;;;3.58;1.85;;;;;;;22.17;65.03;100272.84;5031594;28;20716;-68
2022/06/17 00:50:25;;;;;;;1.45;1.35;;;;;;;22.06;64.47;100263.50;5031835;28;20196;-68
2022/06/17 00:53:03;;;;;;;2.35;1.88;;;;;;;22.11;63.38;100241.34;5013996;28;20201;-68
2022/06/17 00:55:34;;;;;;;2.72;1.85;;;;;;;22.21;63.52;100266.56;5032866;28;20603;-68
2022/06/17 00:58:03;;;;;;;2.25;1.77;;;;;;;22.19;63.57;100260.44;5031935;28;20680;-68
2022/06/17 01:00:32;;;;;;;1.63;1.52;;;;;;;22.11;63.54;100269.53;5032567;28;20211;-68
2022/06/17 01:03:08;;;;;;;1.75;1.65;;;;;;;22.05;64.38;100259.97;5032184;28;20204;-68
2022/06/17 01:05:40;;;;;;;1.75;1.60;;;;;;;22.05;65.30;100251.19;5032012;28;20211;-68
2022/06/17 01:08:15;;;;;;;3.13;1.80;;;;;;;21.91;63.60;100235.75;5031658;28;20220;-68
2022/06/17 01:10:44;;;;;;;2.80;1.80;;;;;;;21.74;64.17;100216.84;5032236;28;20207;-68
2022/06/17 01:13:11;;;;;;;4.72;2.13;;;;;;;21.72;64.00;100250.38;5031253;28;20204;-68
2022/06/17 01:15:42;;;;;;;3.67;2.35;;;;;;;21.85;64.85;100245.59;5032096;28;20200;-68
2022/06/17 01:18:11;;;;;;;3.88;2.20;;;;;;;21.83;63.76;100248.25;5031689;28;20200;-68
2022/06/17 01:20:41;;;;;;;3.08;1.60;;;;;;;21.89;63.21;100229.63;5032307;28;20204;-68
2022/06/17 01:23:13;;;;;;;3.70;1.60;;;;;;;21.97;63.23;100246.16;5031626;28;20250;-68
2022/06/17 01:25:43;;;;;;;2.08;1.88;;;;;;;22.07;62.51;100252.91;5031944;28;20204;-68
2022/06/17 01:28:11;;;;;;;6.63;1.98;;;;;;;22.04;62.37;100255.63;5031019;28;20688;-68
2022/06/17 01:30:41;;;;;;;5.95;2.30;;;;;;;21.95;62.78;100247.97;5031918;28;20287;-68
2022/06/17 01:33:12;;;;;;;1.80;1.70;;;;;;;21.90;62.34;100234.03;5031631;28;20198;-68
2022/06/17 01:35:46;;;;;;;2.28;1.90;;;;;;;22.02;62.25;100254.78;5031781;28;20200;-68
2022/06/17 01:38:15;;;;;;;2.13;1.58;;;;;;;21.94;62.25;100248.84;5030699;28;20214;-68
2022/06/17 01:40:42;;;;;;;2.03;1.92;;;;;;;22.01;62.40;100253.06;5032057;28;20196;-68
2022/06/17 01:43:14;;;;;;;2.75;1.70;;;;;;;21.97;62.52;100248.78;5031274;28;20204;-68
2022/06/17 01:45:47;;;;;;;2.25;1.67;;;;;;;21.91;62.33;100243.66;5012422;28;20192;-68
2022/06/17 01:48:17;;;;;;;2.58;1.85;;;;;;;21.86;62.52;100232.34;5019870;28;20216;-68
2022/06/17 01:50:46;;;;;;;2.90;1.67;;;;;;;21.82;62.85;100245.69;5031250;28;20668;-68
2022/06/17 01:53:17;;;;;;;1.70;1.60;;;;;;;21.72;63.38;100239.81;4996236;28;20196;-68
2022/06/17 01:55:49;;;;;;;3.42;1.80;;;;;;;21.70;63.35;100233.69;5031563;28;20208;-68
2022/06/17 01:58:23;;;;;;;1.63;1.52;;;;;;;21.65;63.74;100238.25;5011684;28;20943;-68
2022/06/17 02:00:49;;;;;;;1.70;1.60;;;;;;;21.55;63.51;100236.75;5011545;28;20197;-68
2022/06/17 02:03:21;;;;;;;5.93;1.88;;;;;;;21.65;62.96;100240.88;5025127;28;20203;-68
2022/06/17 02:05:52;;;;;;;2.65;1.75;;;;;;;21.66;62.30;100235.53;5030712;28;20206;-68
2022/06/17 02:08:21;;;;;;;1.70;1.70;;;;;;;21.60;62.62;100230.44;5029760;28;20223;-68
2022/06/17 02:10:49;;;;;;;2.38;1.80;;;;;;;21.64;62.78;100244.41;5030479;28;20218;-68
2022/06/17 02:13:17;;;;;;;5.13;1.92;;;;;;;21.73;62.27;100252.94;5030778;28;20218;-68
2022/06/17 02:15:46;;;;;;;5.32;1.80;;;;;;;21.94;62.86;100251.50;5030217;28;20276;-68
2022/06/17 02:18:16;;;;;;;1.98;1.88;;;;;;;21.92;63.42;100247.19;5030575;28;20204;-68
2022/06/17 02:20:43;;;;;;;1.95;1.83;;;;;;;21.98;62.86;100245.22;5030926;28;20200;-68
2022/06/17 02:23:10;;;;;;;2.30;2.15;;;;;;;21.97;63.18;100248.78;5030988;28;20208;-68
2022/06/17 02:25:43;;;;;;;4.13;1.77;;;;;;;22.11;61.49;100249.25;5030618;28;20200;-69
2022/06/17 02:28:11;;;;;;;2.00;1.85;;;;;;;21.99;61.80;100244.31;5030503;28;20234;-68
2022/06/17 02:30:42;;;;;;;1.77;1.67;;;;;;;22.01;62.01;100255.69;5031163;28;20196;-69
2022/06/17 02:33:10;;;;;;;5.93;1.77;;;;;;;22.02;61.50;100243.34;5031106;28;20208;-68
2022/06/17 02:35:43;;;;;;;4.30;2.15;;;;;;;22.08;61.91;100236.13;5030768;28;20204;-68
2022/06/17 02:38:14;;;;;;;1.83;1.70;;;;;;;22.01;63.11;100242.50;5030520;28;20207;-69
2022/06/17 02:40:46;;;;;;;2.67;1.77;;;;;;;21.98;62.45;100247.88;5030735;28;20294;-68
2022/06/17 02:43:16;;;;;;;1.80;1.70;;;;;;;22.03;62.68;100248.59;5030629;28;20207;-68
2022/06/17 02:45:46;;;;;;;2.00;1.90;;;;;;;21.87;62.36;100247.25;5030132;28;20196;-68
2022/06/17 02:48:21;;;;;;;2.15;1.98;;;;;;;21.87;62.55;100244.63;5030323;28;20224;-69
2022/06/17 02:50:49;;;;;;;1.75;1.65;;;;;;;21.99;62.27;100254.00;5030318;28;20210;-68
2022/06/17 02:53:16;;;;;;;4.00;1.85;;;;;;;21.87;62.31;100239.34;5030355;28;20200;-68
2022/06/17 02:55:45;;;;;;;3.05;1.80;;;;;;;21.89;62.80;100244.59;5010707;28;20654;-69
2022/06/17 02:58:21;;;;;;;3.55;2.75;;;;;;;21.83;63.67;100248.25;5028578;28;20204;-69
2022/06/17 03:00:49;;;;;;;2.30;2.08;;;;;;;21.65;65.44;100243.53;5030181;28;20195;-68
2022/06/17 03:03:18;;;;;;;2.17;1.90;;;;;;;21.93;63.12;100249.78;5034118;28;20208;-67
2022/06/17 03:05:47;;;;;;;2.00;1.90;;;;;;;21.97;62.63;100235.59;5034167;28;20211;-67
2022/06/17 03:08:22;;;;;;;9.07;1.98;;;;;;;22.09;65.40;100255.47;5034578;28;20228;-68
2022/06/17 03:10:53;;;;;;;2.53;2.20;;;;;;;22.37;65.30;100266.09;5034030;28;20203;-67
2022/06/17 03:13:24;;;;;;;2.38;2.15;;;;;;;22.90;62.31;100262.66;5034121;28;20207;-68
2022/06/17 03:15:56;;;;;;;2.20;1.83;;;;;;;23.40;58.92;100262.78;5034321;28;20208;-68
2022/06/17 03:18:25;;;;;;;3.63;1.60;;;;;;;23.60;58.61;100262.97;5034362;28;20266;-68
2022/06/17 03:20:52;;;;;;;2.50;1.98;;;;;;;24.15;55.90;100261.88;5033427;28;20216;-68
2022/06/17 03:23:23;;;;;;;2.08;1.90;;;;;;;24.56;53.50;100254.94;5034112;28;20231;-67
2022/06/17 03:25:56;;;;;;;6.03;2.15;;;;;;;24.90;52.76;100249.22;5033793;28;20203;-68
2022/06/17 03:28:28;;;;;;;2.30;1.67;;;;;;;25.10;52.07;100230.66;5033910;28;20228;-68
2022/06/17 03:31:02;;;;;;;3.85;1.90;;;;;;;25.60;50.31;100268.34;5033514;28;20695;-68
2022/06/17 03:33:34;;;;;;;2.13;1.88;;;;;;;25.64;49.23;100275.25;5033872;28;20200;-67
2022/06/17 03:36:08;;;;;;;2.83;1.67;;;;;;;25.62;49.90;100262.03;4999663;28;20241;-68
2022/06/17 03:38:43;;;;;;;1.83;1.60;;;;;;;26.27;49.44;100270.66;5033342;28;20200;-69
2022/06/17 03:41:19;;;;;;;5.00;2.25;;;;;;;27.03;50.70;100268.75;5033760;28;20567;-77
2022/06/17 03:43:51;;;;;;;1.90;1.80;;;;;;;27.60;47.25;100269.44;5032861;28;20568;-69
2022/06/17 03:46:20;;;;;;;2.45;1.48;;;;;;;28.18;46.16;100266.38;5033036;28;20196;-69
2022/06/17 03:48:53;;;;;;;1.90;1.80;;;;;;;28.82;43.69;100290.38;5033413;28;20220;-69
2022/06/17 03:51:23;;;;;;;2.42;2.00;;;;;;;29.32;42.66;100291.00;5031952;28;20211;-69
2022/06/17 03:53:52;;;;;;;2.47;2.05;;;;;;;29.69;42.03;100295.00;5032417;28;20202;-69
2022/06/17 03:56:22;;;;;;;2.45;1.70;;;;;;;29.90;41.61;100293.72;5033897;28;20199;-69
2022/06/17 03:58:51;;;;;;;2.78;1.85;;;;;;;30.29;40.51;100281.50;5033882;28;20203;-68
2022/06/17 04:01:25;;;;;;;3.42;1.65;;;;;;;30.78;39.59;100293.50;5033100;28;20710;-69
2022/06/17 04:03:54;;;;;;;2.92;1.80;;;;;;;30.89;39.60;100268.72;5033099;28;20195;-69
2022/06/17 04:06:25;;;;;;;2.42;1.92;;;;;;;31.37;39.15;100294.06;5033327;28;20211;-69
2022/06/17 04:08:56;;;;;;;2.33;2.22;;;;;;;31.54;38.46;100284.91;5033606;28;20223;-69
2022/06/17 04:11:27;;;;;;;6.28;1.77;;;;;;;31.58;38.62;100295.31;5032957;28;20191;-69
2022/06/17 04:13:57;;;;;;;3.95;2.10;;;;;;;31.31;38.29;100292.66;5032442;28;20239;-69
2022/06/17 04:16:32;;;;;;;5.97;1.85;;;;;;;31.75;37.08;100257.47;5033100;28;20206;-68
2022/06/17 04:19:04;;;;;;;9.88;2.33;;;;;;;31.02;38.31;100290.19;5033221;28;20195;-68
2022/06/17 04:21:30;;;;;;;2.47;1.80;;;;;;;30.80;37.41;100302.28;5032698;28;20202;-68
2022/06/17 04:23:58;;;;;;;2.30;2.13;;;;;;;31.24;38.23;100279.78;5032576;28;20188;-69
2022/06/17 04:26:31;;;;;;;1.70;1.60;;;;;;;31.22;38.49;100287.03;5033186;28;20215;-69
2022/06/17 04:29:02;;;;;;;2.72;1.70;;;;;;;30.22;40.13;100272.13;5030704;28;22029;-71
2022/06/17 04:31:32;;;;;;;2.08;1.55;;;;;;;29.82;41.17;100279.91;5030878;28;20200;-69
2022/06/17 04:34:04;;;;;;;2.42;2.20;;;;;;;30.36;40.72;100290.84;5032053;28;20200;-67
2022/06/17 04:36:34;;;;;;;3.22;2.10;;;;;;;29.57;40.85;100285.06;5032814;28;20668;-69
2022/06/17 04:39:07;;;;;;;2.00;1.90;;;;;;;29.85;42.66;100276.25;5032947;28;20212;-68
2022/06/17 04:41:39;;;;;;;3.00;1.92;;;;;;;31.10;41.54;100282.53;5032370;28;20235;-68
2022/06/17 04:44:07;;;;;;;1.95;1.85;;;;;;;31.82;41.42;100284.75;5030743;28;20192;-69
2022/06/17 04:46:39;;;;;;;3.35;1.98;;;;;;;32.57;39.01;100291.84;5013563;28;20200;-69
2022/06/17 04:49:08;;;;;;;2.03;1.92;;;;;;;33.30;37.93;100287.31;5032333;28;20231;-69
2022/06/17 04:51:35;;;;;;;6.65;2.70;;;;;;;33.92;38.75;100300.50;5032380;28;20200;-69
2022/06/17 04:54:05;;;;;;;6.72;2.88;;;;;;;34.42;37.88;100298.34;5031808;28;20195;-69
2022/06/17 04:56:34;;;;;;;4.25;2.22;;;;;;;34.28;37.77;100311.06;5031962;28;20656;-69
2022/06/17 04:59:17;;;;;;;2.67;2.45;;;;;;;33.55;39.30;100291.69;5032285;28;20234;-69
2022/06/17 05:01:44;;;;;;;4.85;2.25;;;;;;;33.80;39.05;100302.31;5032126;28;20195;-69
2022/06/17 05:04:11;;;;;;;5.78;2.40;;;;;;;34.33;38.63;100321.47;4998087;28;20200;-69
2022/06/17 05:06:38;;;;;;;2.90;2.00;;;;;;;34.48;38.58;100322.94;5032471;28;20196;-70
2022/06/17 05:09:11;;;;;;;2.92;2.65;;;;;;;33.94;38.74;100273.44;5032244;28;20245;-67
2022/06/17 05:11:42;;;;;;;5.28;3.40;;;;;;;34.14;38.81;100315.84;5031503;28;20726;-67
2022/06/17 05:14:15;;;;;;;3.65;3.35;;;;;;;33.67;39.31;100325.75;5032175;28;20235;-67
2022/06/17 05:16:42;;;;;;;4.38;3.40;;;;;;;33.27;40.67;100316.28;5030650;28;20212;-67
2022/06/17 05:19:09;;;;;;;3.30;3.10;;;;;;;33.47;40.02;100323.69;5035440;28;20222;-67
2022/06/17 05:21:35;;;;;;;7.43;3.30;;;;;;;34.13;39.24;100324.88;5034040;28;20266;-67
2022/06/17 05:24:03;;;;;;;4.30;2.90;;;;;;;34.53;39.04;100317.19;5038589;28;20668;-67
2022/06/17 05:26:30;;;;;;;3.20;2.90;;;;;;;34.55;38.46;100326.00;5043521;28;20211;-67
2022/06/17 05:28:57;;;;;;;4.00;3.08;;;;;;;34.77;38.41;100326.00;5051469;28;20237;-70
2022/06/17 05:31:27;;;;;;;4.60;3.13;;;;;;;35.06;37.80;100331.69;5049834;28;20221;-71
2022/06/17 05:33:54;;;;;;;7.05;3.17;;;;;;;34.93;37.95;100326.44;5034270;28;20203;-69
2022/06/17 05:36:21;;;;;;;4.07;3.42;;;;;;;34.60;38.58;100313.88;5006967;28;20574;-70
2022/06/17 05:38:48;;;;;;;5.10;3.25;;;;;;;34.42;38.68;100320.75;5046285;28;20670;-67
2022/06/17 05:41:17;;;;;;;9.02;3.42;;;;;;;34.21;39.14;100306.31;5041889;28;20199;-70
2022/06/17 05:43:43;;;;;;;6.97;3.28;;;;;;;34.27;38.96;100312.06;5037969;28;20207;-70
2022/06/17 05:46:10;;;;;;;7.10;3.50;;;;;;;34.27;38.84;100303.97;5051330;28;20210;-70
2022/06/17 05:48:39;;;;;;;6.28;3.25;;;;;;;33.97;39.78;100314.44;5016180;28;20302;-70
2022/06/17 05:51:06;;;;;;;5.20;3.13;;;;;;;32.88;40.54;100307.50;5037110;28;20756;-70
2022/06/17 05:53:33;;;;;;;8.70;3.13;;;;;;;33.36;40.04;100302.13;5050882;28;20202;-70
2022/06/17 05:56:00;;;;;;;8.38;3.78;;;;;;;33.71;40.40;100302.16;5036451;28;20207;-70
2022/06/17 05:58:27;;;;;;;10.85;3.28;;;;;;;33.61;40.21;100312.72;5042946;28;20306;-70
2022/06/17 06:00:54;;;;;;;7.10;3.20;;;;;;;33.35;40.53;100295.91;5030770;28;20196;-69
2022/06/17 06:03:25;;;;;;;9.60;3.60;;;;;;;32.80;41.28;100298.28;5023411;28;20225;-70
2022/06/17 06:05:54;;;;;;;7.13;3.13;;;;;;;32.84;42.25;100283.66;5037772;28;20310;-70
2022/06/17 06:08:21;;;;;;;12.85;3.92;;;;;;;32.46;42.28;100294.50;5044432;28;20619;-70
2022/06/17 06:10:48;;;;;;;12.68;4.30;;;;;;;31.73;43.37;100288.91;5040036;28;20199;-70
2022/06/17 06:13:17;;;;;;;6.85;3.92;;;;;;;31.16;44.73;100291.00;5036272;28;20194;-69
2022/06/17 06:15:46;;;;;;;7.30;3.67;;;;;;;30.63;45.90;100274.88;5050415;28;20206;-70
2022/06/17 06:18:16;;;;;;;9.20;3.58;;;;;;;30.45;47.03;100285.81;5034039;28;20211;-70
2022/06/17 06:20:43;;;;;;;9.25;4.15;;;;;;;30.84;46.47;100301.13;5039577;28;20199;-69
2022/06/17 06:23:11;;;;;;;10.18;3.60;;;;;;;31.30;44.57;100290.09;5050299;28;20686;-69
2022/06/17 06:25:38;;;;;;;4.95;3.15;;;;;;;31.09;45.27;100270.94;5050896;28;20217;-69
2022/06/17 06:28:10;;;;;;;12.73;4.00;;;;;;;31.63;44.59;100289.66;5031630;28;20219;-69
2022/06/17 06:30:37;;;;;;;5.72;3.45;;;;;;;31.62;44.36;100286.09;5031972;28;20207;-69
2022/06/17 06:33:04;;;;;;;7.20;3.00;;;;;;;31.54;44.86;100288.44;5050508;28;20203;-69
2022/06/17 06:35:33;;;;;;;4.70;2.97;;;;;;;31.45;45.91;100283.69;5050004;28;20202;-69
2022/06/17 06:38:01;;;;;;;15.18;3.58;;;;;;;30.62;46.25;100254.41;5049807;28;20257;-69
2022/06/17 06:40:29;;;;;;;5.10;3.30;;;;;;;30.28;47.68;100272.63;5050271;28;20221;-69
2022/06/17 06:42:57;;;;;;;5.00;3.35;;;;;;;30.04;47.91;100259.94;5050102;28;20192;-69
2022/06/17 06:45:26;;;;;;;5.85;2.70;;;;;;;30.10;49.48;100279.13;5050493;28;20199;-69
2022/06/17 06:47:54;;;;;;;4.68;3.55;;;;;;;29.76;51.12;100266.06;5050069;28;20202;-69
2022/06/17 06:50:23;;;;;;;4.55;3.13;;;;;;;29.50;51.35;100257.81;5050117;28;20681;-69
2022/06/17 06:52:50;;;;;;;5.45;3.42;;;;;;;29.47;51.88;100233.09;5050209;28;20202;-69
2022/06/17 06:55:18;;;;;;;3.55;3.20;;;;;;;29.73;51.94;100263.59;5050382;28;20210;-69
2022/06/17 06:57:51;;;;;;;4.10;2.72;;;;;;;29.60;52.52;100263.50;5050133;28;20214;-69
2022/06/17 07:00:20;;;;;;;5.07;3.40;;;;;;;29.47;52.92;100262.50;5050334;28;20199;-69
2022/06/17 07:02:47;;;;;;;5.72;3.53;;;;;;;28.84;54.04;100262.63;5049993;28;20210;-69
2022/06/17 07:05:14;;;;;;;5.07;3.17;;;;;;;28.60;55.67;100253.31;5015105;28;20203;-69
2022/06/17 07:07:42;;;;;;;8.15;3.33;;;;;;;28.99;55.49;100261.75;5050228;28;20203;-69
2022/06/17 07:10:12;;;;;;;11.25;3.13;;;;;;;29.11;55.67;100273.50;5050074;28;20227;-69
2022/06/17 07:12:39;;;;;;;5.78;2.78;;;;;;;29.05;55.84;100272.06;5050130;28;20196;-69
2022/06/17 07:15:09;;;;;;;4.03;2.90;;;;;;;29.13;55.45;100241.38;5049804;28;20617;-69
2022/06/17 07:17:36;;;;;;;3.47;3.13;;;;;;;28.78;54.95;100271.00;5049905;28;20195;-69
2022/06/17 07:20:03;;;;;;;7.07;3.10;;;;;;;29.12;55.63;100266.34;5049859;28;20203;-69
2022/06/17 07:22:31;;;;;;;8.95;3.20;;;;;;;29.46;55.36;100267.00;5014922;28;20234;-69
2022/06/17 07:24:58;;;;;;;8.40;2.90;;;;;;;29.45;53.47;100270.63;5049755;28;20599;-69
2022/06/17 07:27:24;;;;;;;6.20;2.88;;;;;;;29.23;52.79;100255.91;5049871;28;20208;-69
2022/06/17 07:29:51;;;;;;;8.02;3.20;;;;;;;29.33;53.66;100241.94;5049651;28;20227;-69
2022/06/17 07:32:19;;;;;;;3.95;3.05;;;;;;;29.53;54.37;100259.47;5049869;28;20204;-69
2022/06/17 07:34:46;;;;;;;5.93;3.50;;;;;;;29.70;51.77;100263.78;5049688;28;20813;-69
2022/06/17 07:39:58;;;;;;;3.33;3.05;;;;;;;29.81;50.73;100272.88;5049845;28;20801;-69
2022/06/17 07:42:37;;;;;;;7.43;3.05;;;;;;;29.78;49.29;100251.69;5049640;28;20593;-68
2022/06/17 07:45:06;;;;;;;12.65;3.35;;;;;;;30.08;49.51;100275.69;5046602;28;20210;-69
2022/06/17 07:47:34;;;;;;;3.78;3.47;;;;;;;30.12;49.83;100233.53;5050451;28;20202;-68
2022/06/17 07:50:01;;;;;;;6.68;3.45;;;;;;;30.40;48.01;100262.94;5045406;28;20307;-69
2022/06/17 07:52:29;;;;;;;9.52;3.45;;;;;;;30.22;47.38;100277.47;5019830;28;20672;-69
2022/06/17 07:54:55;;;;;;;8.40;3.85;;;;;;;30.13;47.39;100281.63;5040054;28;20205;-69
2022/06/17 07:57:22;;;;;;;7.32;4.30;;;;;;;30.00;47.49;100278.00;5040016;28;20207;-69
2022/06/17 07:59:49;;;;;;;6.10;4.20;;;;;;;30.09;47.86;100272.06;5052256;28;20196;-69
2022/06/17 08:02:16;;;;;;;3.80;3.50;;;;;;;30.05;47.09;100278.53;5017478;28;20679;-69
2022/06/17 08:04:44;;;;;;;4.93;3.78;;;;;;;29.98;48.07;100279.88;5052989;28;20210;-69
2022/06/17 08:07:11;;;;;;;3.97;3.55;;;;;;;29.76;47.24;100258.06;5052563;28;20593;-68
2022/06/17 08:09:38;;;;;;;4.75;3.58;;;;;;;29.67;48.68;100243.44;5052703;28;20227;-68
2022/06/17 08:12:08;;;;;;;5.22;3.15;;;;;;;29.73;48.30;100274.28;5052533;28;20214;-68
2022/06/17 08:14:35;;;;;;;4.30;3.50;;;;;;;29.41;46.15;100268.22;5052475;28;20730;-68
2022/06/17 08:17:02;;;;;;;4.13;3.58;;;;;;;29.27;46.24;100270.84;5052808;28;20253;-68
2022/06/17 08:19:29;;;;;;;5.30;3.38;;;;;;;29.00;47.71;100257.28;5040098;28;20200;-68
2022/06/17 08:21:58;;;;;;;4.30;3.42;;;;;;;29.57;48.46;100269.03;5050844;28;20218;-69
2022/06/17 08:24:24;;;;;;;5.30;3.25;;;;;;;29.90;47.01;100261.63;5052320;28;20211;-69
2022/06/17 08:26:51;;;;;;;5.88;3.55;;;;;;;29.95;46.16;100272.06;5035769;28;20676;-68
2022/06/17 08:29:19;;;;;;;4.72;4.20;;;;;;;29.87;44.39;100269.84;5041536;28;20231;-69
2022/06/17 08:31:46;;;;;;;7.38;3.38;;;;;;;29.46;45.86;100267.00;5050752;28;20278;-69
2022/06/17 08:34:13;;;;;;;4.75;3.53;;;;;;;29.67;45.34;100259.50;5040001;28;20207;-69
2022/06/17 08:36:41;;;;;;;5.00;3.22;;;;;;;29.60;45.47;100252.81;5016949;28;20191;-69
2022/06/17 08:39:11;;;;;;;3.67;3.38;;;;;;;29.89;45.90;100264.41;5018431;28;20218;-69
2022/06/17 08:41:49;;;;;;;3.85;3.58;;;;;;;30.09;46.01;100258.69;5045183;28;20210;-69
2022/06/17 08:44:37;;;;;;;3.70;3.40;;;;;;;29.66;46.56;100243.53;5025082;28;20680;-69
2022/06/17 08:47:21;;;;;;;3.70;3.40;;;;;;;29.71;48.56;100250.34;5050582;28;20566;-73
2022/06/17 08:50:09;;;;;;;3.70;3.45;;;;;;;29.92;48.08;100245.50;5041903;28;20703;-73
2022/06/17 08:52:47;;;;;;;5.68;3.58;;;;;;;29.76;47.81;100224.16;4966723;28;20206;-73
2022/06/17 08:55:28;;;;;;;4.57;3.83;;;;;;;30.04;47.56;100262.63;4904157;29;20210;-73
2022/06/17 08:58:01;;;;;;;8.25;4.35;;;;;;;29.74;51.82;100244.78;4970400;28;20202;-73
2022/06/17 09:00:36;;;;;;;4.57;3.60;;;;;;;29.74;50.13;100234.09;4970403;28;20201;-71
2022/06/17 09:03:24;;;;;;;3.70;3.40;;;;;;;30.13;47.89;100229.91;4938503;28;20224;-71
2022/06/17 09:06:04;;;;;;;3.83;3.53;;;;;;;30.30;47.96;100256.47;4956267;28;20203;-71
2022/06/17 09:08:56;;;;;;;4.40;3.35;;;;;;;29.89;47.68;100245.69;4959962;28;20216;-71
2022/06/17 09:11:30;;;;;;;3.97;3.67;;;;;;;30.02;48.78;100244.84;4970592;28;20217;-71
2022/06/17 09:14:15;;;;;;;3.80;3.60;;;;;;;29.73;49.43;100194.94;4970028;28;20230;-71
2022/06/17 09:16:52;;;;;;;7.43;4.10;;;;;;;30.18;48.43;100243.88;4970479;28;20757;-70
2022/06/17 09:19:27;;;;;;;4.18;3.15;;;;;;;30.38;47.92;100243.47;4970603;28;20206;-71
2022/06/17 09:21:57;;;;;;;4.78;3.50;;;;;;;29.81;47.90;100235.44;4945708;28;20694;-74
2022/06/17 09:24:28;;;;;;;11.30;3.90;;;;;;;29.95;47.87;100219.44;4970239;28;20202;-68
2022/06/17 09:27:00;;;;;;;4.03;3.45;;;;;;;30.13;48.51;100237.94;4938199;28;20214;-67
2022/06/17 09:29:35;;;;;;;3.55;3.30;;;;;;;30.34;47.81;100218.72;4969658;28;20224;-67
2022/06/17 09:32:09;;;;;;;3.70;3.40;;;;;;;30.37;47.10;100209.63;5018101;28;20199;-67
2022/06/17 09:34:45;;;;;;;3.80;3.50;;;;;;;30.31;46.50;100204.66;5031253;28;20228;-67
2022/06/17 09:37:17;;;;;;;3.92;3.58;;;;;;;30.35;47.22;100220.44;5031224;28;20289;-67
2022/06/17 09:39:49;;;;;;;4.40;3.85;;;;;;;30.40;46.52;100215.63;5031367;28;20208;-67
2022/06/17 09:42:22;;;;;;;10.32;3.60;;;;;;;30.51;46.57;100217.66;5031130;28;20199;-66
2022/06/17 09:44:54;;;;;;;4.25;3.95;;;;;;;30.55;46.99;100221.84;5031044;28;20680;-67
2022/06/17 09:47:29;;;;;;;5.00;4.13;;;;;;;30.80;46.52;100221.94;5030806;28;20215;-67
2022/06/17 09:50:00;;;;;;;4.60;4.10;;;;;;;30.96;47.44;100224.47;4997380;28;20249;-67
2022/06/17 09:52:29;;;;;;;6.20;3.42;;;;;;;30.69;46.16;100224.47;5031015;28;20215;-67
2022/06/17 09:55:06;;;;;;;10.10;3.75;;;;;;;30.75;46.95;100208.00;5039854;28;20699;-67
2022/06/17 09:57:44;;;;;;;4.07;3.78;;;;;;;30.62;47.36;100196.38;5037567;28;20203;-67
2022/06/17 10:00:13;;;;;;;8.23;4.10;;;;;;;30.68;46.38;100193.28;5017299;28;20680;-67
2022/06/17 10:02:47;;;;;;;5.78;3.65;;;;;;;30.76;45.82;100209.72;5030996;28;20215;-67
2022/06/17 10:05:17;;;;;;;3.95;3.65;;;;;;;30.50;45.97;100149.88;5030998;28;20196;-67
2022/06/17 10:07:50;;;;;;;3.38;3.20;;;;;;;30.95;44.13;100202.19;5030594;28;20223;-67
2022/06/17 10:10:30;;;;;;;5.10;3.22;;;;;;;30.88;43.78;100198.22;5030176;28;20224;-67
2022/06/17 10:13:13;;;;;;;4.53;3.25;;;;;;;30.92;43.03;100207.75;5030154;28;20207;-67
2022/06/17 10:18:31;;;;;;;3.38;3.10;;;;;;;30.88;44.52;100203.56;5030693;28;20233;-67
2022/06/17 10:18:43;;;;;;;3.92;3.53;;;;;;;30.54;43.89;100206.72;5030613;28;20667;-67
2022/06/17 10:21:27;;;;;;;7.47;3.92;;;;;;;30.39;44.09;100172.94;5030422;28;20210;-67
2022/06/17 10:24:15;;;;;;;5.00;4.10;;;;;;;30.64;44.16;100204.34;5030382;28;20588;-67
2022/06/17 10:26:54;;;;;;;6.95;3.80;;;;;;;30.70;42.62;100198.56;5030332;28;20761;-67
2022/06/17 10:29:50;;;;;;;7.95;3.53;;;;;;;30.91;42.13;100199.81;5030359;28;20293;-67
2022/06/17 10:32:17;;;;;;;5.90;3.22;;;;;;;31.15;41.77;100200.00;5030332;28;20216;-67
2022/06/17 10:34:46;;;;;;;10.40;3.42;;;;;;;31.20;41.02;100163.91;5030417;28;20253;-67
2022/06/17 10:37:14;;;;;;;3.20;3.00;;;;;;;31.07;40.87;100186.28;5011593;28;20664;-75
2022/06/17 10:39:43;;;;;;;3.88;3.10;;;;;;;31.26;41.25;100186.72;5011647;28;20680;-68
2022/06/17 10:42:15;;;;;;;3.00;2.70;;;;;;;30.53;40.29;100180.09;5030247;28;20203;-67
2022/06/17 10:44:47;;;;;;;3.28;3.08;;;;;;;30.55;41.13;100188.84;5030371;28;20286;-68
2022/06/17 10:47:27;;;;;;;3.10;2.90;;;;;;;31.13;41.29;100181.38;5030245;28;20200;-68
2022/06/17 10:49:58;;;;;;;5.00;3.50;;;;;;;31.49;41.35;100151.16;5030065;28;20227;-68
2022/06/17 10:52:31;;;;;;;7.15;3.75;;;;;;;31.78;41.00;100163.41;4995362;28;20276;-67
2022/06/17 10:54:58;;;;;;;3.38;3.17;;;;;;;31.87;40.01;100180.66;5012345;28;20287;-67
2022/06/17 10:57:27;;;;;;;3.90;3.38;;;;;;;31.69;41.00;100174.75;5030054;28;20257;-67
2022/06/17 10:59:56;;;;;;;5.10;3.75;;;;;;;31.86;39.25;100169.06;5030172;28;20999;-68
2022/06/17 11:02:29;;;;;;;3.45;3.15;;;;;;;32.00;39.93;100173.41;5030063;28;20196;-67
2022/06/17 11:04:58;;;;;;;3.92;3.55;;;;;;;32.16;39.84;100176.75;5029988;28;20202;-68
2022/06/17 11:07:30;;;;;;;5.60;3.33;;;;;;;31.83;37.21;100173.78;5029985;28;20196;-67
2022/06/17 11:10:01;;;;;;;4.43;2.92;;;;;;;31.95;36.33;100176.47;5030098;28;20314;-68
2022/06/17 11:12:34;;;;;;;10.15;3.35;;;;;;;32.23;36.00;100177.16;5030097;28;20202;-68
2022/06/17 11:15:05;;;;;;;3.50;3.20;;;;;;;32.13;35.40;100174.31;5030191;28;20227;-66
2022/06/17 11:17:36;;;;;;;6.03;3.20;;;;;;;31.85;36.65;100170.03;5029794;28;20579;-66
2022/06/17 11:20:07;;;;;;;7.72;3.40;;;;;;;32.13;37.21;100168.94;5030159;28;20204;-66
2022/06/17 11:22:36;;;;;;;5.35;3.58;;;;;;;32.13;37.69;100168.94;5030916;28;20278;-66
2022/06/17 11:25:08;;;;;;;4.75;3.88;;;;;;;32.01;37.81;100160.88;5033543;28;20196;-67
2022/06/17 11:27:41;;;;;;;7.75;4.20;;;;;;;32.29;38.20;100155.22;5033785;28;20203;-67
2022/06/17 11:30:31;;;;;;;5.53;3.40;;;;;;;32.57;38.06;100152.22;5015111;28;20223;-67
2022/06/17 11:33:00;;;;;;;4.22;3.47;;;;;;;32.10;38.21;100134.28;4991849;28;20197;-67
2022/06/17 11:35:37;;;;;;;3.50;3.30;;;;;;;32.43;37.28;100144.31;4991805;28;20207;-67
2022/06/17 11:38:11;;;;;;;12.68;3.60;;;;;;;31.84;37.84;100146.00;4991759;28;20208;-67
2022/06/17 11:40:49;;;;;;;3.65;3.40;;;;;;;31.73;38.46;100138.72;4991779;28;20687;-66
2022/06/17 11:43:28;;;;;;;3.83;3.45;;;;;;;31.63;38.91;100132.31;4991709;28;20270;-67